Time;durP1;ratioP1;P1;durP2;ratioP2;P2;SDS_P1;SDS_P2;PMS_P1;PMS_P2;Temp;Humidity;BMP_temperature;BMP_pressure;BME280_temperature;BME280_humidity;BME280_pressure;Samples;Min_cycle;Max_cycle;Signal;HPM_P1;HPM_P2
2022/07/30 00:00:39;;;;;;;9.88;5.15;;;;;;;16.15;99.42;101631.31;5264487;28;20028;-66
2022/07/30 00:03:10;;;;;;;11.43;4.68;;;;;;;16.09;99.22;101618.41;5261372;28;20371;-67
2022/07/30 00:05:42;;;;;;;9.45;5.30;;;;;;;16.05;99.92;101625.03;5257772;28;20039;-66
2022/07/30 00:08:13;;;;;;;9.70;5.47;;;;;;;16.02;100.00;101625.31;5258016;28;20028;-66
2022/07/30 00:10:44;;;;;;;10.75;5.55;;;;;;;15.95;100.00;101619.59;5265285;28;20051;-66
2022/07/30 00:13:17;;;;;;;9.93;5.55;;;;;;;15.92;100.00;101622.56;5258620;28;20481;-66
2022/07/30 00:15:48;;;;;;;11.90;6.63;;;;;;;15.87;100.00;101622.94;5264678;28;20020;-66
2022/07/30 00:18:19;;;;;;;12.40;6.53;;;;;;;15.85;100.00;101614.16;5262745;28;20027;-66
2022/07/30 00:20:50;;;;;;;13.13;6.40;;;;;;;15.80;100.00;101611.03;5257147;28;20040;-67
2022/07/30 00:23:22;;;;;;;10.57;5.72;;;;;;;15.77;100.00;101616.66;5254452;28;20033;-67
2022/07/30 00:25:53;;;;;;;17.08;7.20;;;;;;;15.73;100.00;101612.53;5260643;28;20029;-66
2022/07/30 00:28:24;;;;;;;13.43;6.65;;;;;;;15.74;100.00;101622.31;5257105;28;20032;-66
2022/07/30 00:30:56;;;;;;;10.77;6.38;;;;;;;15.78;100.00;101609.44;5256595;28;20248;-66
2022/07/30 00:33:27;;;;;;;11.60;6.78;;;;;;;15.69;100.00;101613.75;5259737;28;20028;-66
2022/07/30 00:35:58;;;;;;;12.13;6.75;;;;;;;15.66;100.00;101624.78;5265793;28;20025;-66
2022/07/30 00:38:30;;;;;;;11.32;6.88;;;;;;;15.66;100.00;101630.16;5265869;28;20038;-66
2022/07/30 00:41:01;;;;;;;14.75;6.88;;;;;;;15.61;100.00;101625.19;5261765;28;20094;-66
2022/07/30 00:43:32;;;;;;;13.27;6.47;;;;;;;15.57;100.00;101622.88;5247017;28;20198;-66
2022/07/30 00:46:04;;;;;;;13.70;7.63;;;;;;;15.54;100.00;101625.84;5261303;28;20029;-66
2022/07/30 00:48:35;;;;;;;12.23;7.35;;;;;;;15.53;100.00;101619.56;5266403;28;20107;-66
2022/07/30 00:51:06;;;;;;;11.10;6.97;;;;;;;15.46;100.00;101619.25;5261872;28;20040;-66
2022/07/30 00:53:38;;;;;;;15.55;7.90;;;;;;;15.44;100.00;101615.84;5261716;28;20025;-66
2022/07/30 00:56:09;;;;;;;14.00;8.10;;;;;;;15.42;100.00;101622.34;5264535;28;20021;-66
2022/07/30 00:58:40;;;;;;;16.95;8.50;;;;;;;15.37;100.00;101619.19;5253799;28;20052;-66
2022/07/30 01:01:11;;;;;;;13.45;8.40;;;;;;;15.36;100.00;101620.16;5257081;28;20528;-66
2022/07/30 01:03:43;;;;;;;15.07;9.45;;;;;;;15.33;100.00;101613.22;5257883;28;20028;-66
2022/07/30 01:06:14;;;;;;;17.65;9.20;;;;;;;15.31;100.00;101623.25;5263421;28;20025;-66
2022/07/30 01:08:45;;;;;;;13.65;8.30;;;;;;;15.29;100.00;101609.09;5266685;28;20478;-66
2022/07/30 01:11:17;;;;;;;17.40;9.63;;;;;;;15.23;100.00;101601.53;5251567;28;20071;-66
2022/07/30 01:13:48;;;;;;;12.10;8.88;;;;;;;15.27;100.00;101603.84;5267823;28;20037;-66
2022/07/30 01:16:20;;;;;;;17.25;8.90;;;;;;;15.17;100.00;101600.22;5257710;28;20479;-66
2022/07/30 01:21:50;;;;;;;17.92;10.25;;;;;;;15.15;100.00;101609.38;5257974;28;20037;-66
2022/07/30 01:24:35;;;;;;;13.82;9.70;;;;;;;15.22;100.00;101605.19;5262264;28;20037;-67
2022/07/30 01:27:07;;;;;;;15.13;9.45;;;;;;;15.08;100.00;101599.16;5259388;28;20041;-66
2022/07/30 01:29:42;;;;;;;17.30;10.90;;;;;;;15.09;100.00;101608.06;5261023;28;20460;-66
2022/07/30 01:32:15;;;;;;;15.88;10.73;;;;;;;15.12;100.00;101607.81;5257665;28;20059;-66
2022/07/30 01:34:49;;;;;;;16.50;10.93;;;;;;;15.00;100.00;101614.22;5256609;28;20032;-66
2022/07/30 01:37:21;;;;;;;15.27;10.43;;;;;;;14.99;100.00;101609.81;5267780;28;20424;-66
2022/07/30 01:39:53;;;;;;;16.30;10.90;;;;;;;14.95;100.00;101605.69;5266798;28;20028;-66
2022/07/30 01:42:27;;;;;;;19.88;12.85;;;;;;;14.93;100.00;101613.00;5269855;28;20628;-66
2022/07/30 01:45:00;;;;;;;18.20;13.25;;;;;;;14.90;100.00;101611.44;5264032;28;20029;-66
2022/07/30 01:47:34;;;;;;;16.90;11.57;;;;;;;14.85;100.00;101614.50;5264397;28;20033;-66
2022/07/30 01:50:12;;;;;;;20.58;12.65;;;;;;;14.81;100.00;101617.56;5265489;28;20032;-66
2022/07/30 01:52:46;;;;;;;21.58;12.60;;;;;;;14.82;100.00;101616.56;5260793;28;20037;-66
2022/07/30 01:55:24;;;;;;;18.45;13.63;;;;;;;14.82;100.00;101619.25;5274649;28;20048;-67
2022/07/30 01:57:58;;;;;;;18.10;13.00;;;;;;;14.77;100.00;101613.44;5258019;28;20080;-66
2022/07/30 02:00:32;;;;;;;18.75;13.30;;;;;;;14.76;100.00;101619.78;5264957;28;20119;-66
2022/07/30 02:03:04;;;;;;;24.55;14.98;;;;;;;14.75;100.00;101618.09;5264337;28;20028;-67
2022/07/30 02:05:37;;;;;;;20.05;14.23;;;;;;;14.70;100.00;101611.22;5258495;28;20468;-67
2022/07/30 02:08:16;;;;;;;20.63;15.13;;;;;;;14.69;100.00;101612.22;5267250;28;20028;-66
2022/07/30 02:10:53;;;;;;;18.80;14.25;;;;;;;14.69;100.00;101614.91;5259908;28;20073;-66
2022/07/30 02:13:27;;;;;;;20.50;15.15;;;;;;;14.65;100.00;101618.81;5260558;28;20020;-66
2022/07/30 02:16:08;;;;;;;23.02;15.75;;;;;;;14.62;100.00;101624.44;5264866;28;20064;-67
2022/07/30 02:18:49;;;;;;;23.92;15.85;;;;;;;14.59;100.00;101623.81;5264065;28;20451;-66
2022/07/30 02:21:22;;;;;;;21.90;15.38;;;;;;;14.58;100.00;101622.97;5263901;28;20384;-68
2022/07/30 02:23:55;;;;;;;24.40;16.08;;;;;;;14.54;100.00;101621.50;5269637;28;20029;-67
2022/07/30 02:26:28;;;;;;;20.38;15.63;;;;;;;14.49;100.00;101618.31;5261991;28;20032;-67
2022/07/30 02:29:01;;;;;;;20.83;15.82;;;;;;;14.46;100.00;101619.44;5264179;28;21274;-66
2022/07/30 02:31:33;;;;;;;25.80;17.17;;;;;;;14.48;100.00;101614.78;5267486;28;20444;-66
2022/07/30 02:34:07;;;;;;;19.92;16.00;;;;;;;14.44;100.00;101617.81;5259569;28;20036;-67
2022/07/30 02:36:41;;;;;;;21.07;15.87;;;;;;;14.45;100.00;101615.03;5260733;28;20029;-66
2022/07/30 02:39:15;;;;;;;25.25;17.08;;;;;;;14.39;100.00;101628.09;5270680;28;20032;-66
2022/07/30 02:41:48;;;;;;;20.33;16.25;;;;;;;14.37;100.00;101624.69;5266850;28;20170;-66
2022/07/30 02:44:22;;;;;;;20.63;17.17;;;;;;;14.39;100.00;101617.38;5271640;28;20113;-66
2022/07/30 02:46:54;;;;;;;21.80;17.00;;;;;;;14.36;100.00;101629.19;5252592;28;20293;-66
2022/07/30 02:49:28;;;;;;;20.65;16.80;;;;;;;14.34;100.00;101624.91;5263726;28;20037;-66
2022/07/30 02:52:01;;;;;;;24.80;16.60;;;;;;;14.29;100.00;101620.78;5266743;28;20025;-66
2022/07/30 02:54:34;;;;;;;20.38;16.80;;;;;;;14.27;100.00;101627.25;5259574;28;20431;-66
2022/07/30 02:57:07;;;;;;;26.90;17.60;;;;;;;14.26;100.00;101628.22;5255051;28;20058;-66
2022/07/30 02:59:41;;;;;;;22.83;17.33;;;;;;;14.22;100.00;101627.59;5264872;28;20037;-66
2022/07/30 03:02:13;;;;;;;23.90;18.00;;;;;;;14.22;100.00;101632.13;5262058;28;20467;-66
2022/07/30 03:04:45;;;;;;;25.67;19.38;;;;;;;14.18;100.00;101638.72;5266482;28;20036;-66
2022/07/30 03:07:19;;;;;;;27.85;19.80;;;;;;;14.15;100.00;101630.91;5267461;28;20110;-66
2022/07/30 03:09:54;;;;;;;28.23;20.40;;;;;;;14.14;100.00;101632.72;5264461;28;20052;-66
2022/07/30 03:12:30;;;;;;;27.33;20.27;;;;;;;14.09;100.00;101637.59;5265330;28;20282;-66
2022/07/30 03:15:01;;;;;;;28.33;20.45;;;;;;;14.06;100.00;101635.19;5250768;28;20021;-67
2022/07/30 03:17:53;;;;;;;28.25;20.58;;;;;;;14.08;100.00;101643.97;5257646;28;20066;-66
2022/07/30 03:20:28;;;;;;;29.58;21.15;;;;;;;14.05;100.00;101636.13;5257173;28;20040;-66
2022/07/30 03:23:04;;;;;;;27.02;21.85;;;;;;;14.02;100.00;101631.03;5263612;28;20040;-66
2022/07/30 03:25:36;;;;;;;24.38;20.02;;;;;;;14.06;100.00;101635.19;5263798;28;20284;-66
2022/07/30 03:28:08;;;;;;;25.98;19.75;;;;;;;13.97;100.00;101626.00;5268849;28;20034;-66
2022/07/30 03:30:40;;;;;;;25.48;20.23;;;;;;;13.99;100.00;101628.56;5262362;28;20024;-66
2022/07/30 03:33:12;;;;;;;24.35;19.80;;;;;;;13.96;100.00;101626.13;5263910;28;20024;-66
2022/07/30 03:35:44;;;;;;;26.05;20.15;;;;;;;13.93;100.00;101624.53;5261857;28;20025;-67
2022/07/30 03:38:17;;;;;;;27.20;20.33;;;;;;;13.91;100.00;101630.03;5261456;28;20025;-66
2022/07/30 03:40:49;;;;;;;25.48;20.10;;;;;;;13.88;100.00;101624.03;5267036;28;20051;-66
2022/07/30 03:43:21;;;;;;;25.85;21.30;;;;;;;13.93;100.00;101629.91;5267033;28;20052;-66
2022/07/30 03:45:54;;;;;;;27.92;20.35;;;;;;;13.86;100.00;101629.53;5259553;28;20119;-66
2022/07/30 03:48:26;;;;;;;27.13;21.17;;;;;;;13.85;100.00;101630.50;5266082;28;20029;-66
2022/07/30 03:50:58;;;;;;;29.38;20.77;;;;;;;13.83;100.00;101642.34;5272552;28;20461;-66
2022/07/30 03:53:30;;;;;;;26.83;20.77;;;;;;;13.79;100.00;101638.16;5278852;28;20028;-66
2022/07/30 03:56:02;;;;;;;26.70;20.13;;;;;;;13.76;100.00;101639.25;5258902;28;20028;-67
2022/07/30 03:58:36;;;;;;;27.20;20.15;;;;;;;13.75;100.00;101644.75;5266594;28;20052;-66
2022/07/30 04:01:07;;;;;;;28.25;21.35;;;;;;;13.77;100.00;101645.47;5262638;28;20457;-67
2022/07/30 04:03:39;;;;;;;30.65;22.67;;;;;;;13.78;100.00;101648.03;5265416;28;20043;-66
2022/07/30 04:06:10;;;;;;;28.42;21.65;;;;;;;13.72;100.00;101649.38;5262589;28;20591;-66
2022/07/30 04:08:41;;;;;;;26.33;20.13;;;;;;;13.76;100.00;101647.31;5261091;28;20028;-66
2022/07/30 04:11:12;;;;;;;29.80;20.67;;;;;;;13.79;100.00;101649.78;5258376;28;20035;-66
2022/07/30 04:13:44;;;;;;;25.42;19.67;;;;;;;13.71;100.00;101661.09;5266222;28;20116;-66
2022/07/30 04:16:23;;;;;;;28.30;21.13;;;;;;;13.70;100.00;101662.03;5265559;28;20034;-66
2022/07/30 04:18:57;;;;;;;26.90;20.48;;;;;;;13.69;100.00;101665.72;5271817;28;20090;-66
2022/07/30 04:21:32;;;;;;;29.85;21.40;;;;;;;13.70;100.00;101669.25;5263575;28;20029;-66
2022/07/30 04:24:04;;;;;;;28.10;20.73;;;;;;;13.69;100.00;101668.41;5262574;28;20033;-66
2022/07/30 04:26:36;;;;;;;25.92;20.10;;;;;;;13.69;100.00;101667.53;5262007;28;20506;-66
2022/07/30 04:29:09;;;;;;;25.30;19.67;;;;;;;13.77;100.00;101675.84;5265869;28;20031;-66
2022/07/30 04:31:41;;;;;;;26.85;20.55;;;;;;;13.66;100.00;101667.78;5260397;28;20418;-66
2022/07/30 04:34:16;;;;;;;26.02;20.17;;;;;;;13.65;100.00;101674.97;5258736;28;20032;-66
2022/07/30 04:36:47;;;;;;;27.50;20.30;;;;;;;13.64;100.00;101675.94;5264641;28;20057;-66
2022/07/30 04:39:19;;;;;;;26.55;19.35;;;;;;;13.66;100.00;101678.50;5272792;28;20027;-66
2022/07/30 04:41:50;;;;;;;27.55;20.33;;;;;;;13.66;100.00;101678.50;5263796;28;20454;-67
2022/07/30 04:44:21;;;;;;;25.17;20.75;;;;;;;13.75;100.00;101680.47;5256666;28;20120;-67
2022/07/30 04:46:52;;;;;;;24.88;20.48;;;;;;;13.68;100.00;101692.66;5259273;28;20286;-66
2022/07/30 04:49:24;;;;;;;27.17;20.83;;;;;;;13.66;100.00;101679.34;5272180;28;20028;-67
2022/07/30 04:51:57;;;;;;;23.80;20.25;;;;;;;13.69;100.00;101686.28;5261992;28;20063;-66
2022/07/30 04:54:39;;;;;;;25.73;20.42;;;;;;;13.69;100.00;101687.16;5262744;28;20115;-66
2022/07/30 04:57:12;;;;;;;25.13;20.15;;;;;;;13.70;100.00;101699.59;5265968;28;20045;-66
2022/07/30 04:59:44;;;;;;;31.00;22.10;;;;;;;13.70;100.00;101696.06;5263199;28;20034;-66
2022/07/30 05:02:18;;;;;;;28.30;22.08;;;;;;;13.70;100.00;101696.91;5267386;28;20480;-66
2022/07/30 05:04:50;;;;;;;26.50;20.85;;;;;;;13.72;100.00;101707.53;5265148;28;20470;-66
2022/07/30 05:07:22;;;;;;;26.58;20.20;;;;;;;13.73;100.00;101698.53;5256103;28;20040;-66
2022/07/30 05:09:54;;;;;;;27.73;19.63;;;;;;;13.78;100.00;101711.56;5261810;28;20477;-66
2022/07/30 05:12:32;;;;;;;22.00;18.23;;;;;;;13.82;100.00;101702.31;5259354;28;20102;-66
2022/07/30 05:15:05;;;;;;;24.70;18.95;;;;;;;13.84;100.00;101703.06;5263538;28;20036;-66
2022/07/30 05:17:36;;;;;;;27.77;19.67;;;;;;;13.87;100.00;101698.31;5265173;28;20029;-66
2022/07/30 05:20:08;;;;;;;27.90;20.00;;;;;;;13.89;100.00;101693.69;5265748;28;20024;-66
2022/07/30 05:22:40;;;;;;;28.27;19.48;;;;;;;13.92;100.00;101689.88;5264310;28;20029;-67
2022/07/30 05:25:11;;;;;;;28.85;19.58;;;;;;;13.95;100.00;101703.09;5292392;28;20035;-66
2022/07/30 05:27:43;;;;;;;26.25;19.17;;;;;;;13.98;100.00;101693.94;5262901;28;20123;-66
2022/07/30 05:30:14;;;;;;;26.45;20.35;;;;;;;14.08;100.00;101706.53;5262006;28;20382;-67
2022/07/30 05:32:45;;;;;;;25.58;19.88;;;;;;;14.09;100.00;101702.88;5260693;28;20131;-66
2022/07/30 05:35:17;;;;;;;28.05;21.35;;;;;;;14.12;100.00;101701.78;5266558;28;20130;-66
2022/07/30 05:37:48;;;;;;;27.85;19.52;;;;;;;14.13;100.00;101708.84;5266113;28;20289;-66
2022/07/30 05:40:19;;;;;;;27.55;21.83;;;;;;;14.18;100.00;101712.03;5263118;28;20040;-66
2022/07/30 05:42:50;;;;;;;28.45;22.13;;;;;;;14.24;100.00;101716.06;5263207;28;20056;-66
2022/07/30 05:45:22;;;;;;;28.45;22.40;;;;;;;14.26;100.00;101714.97;5267308;28;20060;-66
2022/07/30 05:47:53;;;;;;;30.27;21.42;;;;;;;14.34;100.00;101713.50;5265319;28;20027;-66
2022/07/30 05:50:24;;;;;;;26.77;20.15;;;;;;;14.40;100.00;101713.03;5268879;28;20036;-66
2022/07/30 05:52:57;;;;;;;27.98;21.67;;;;;;;14.43;100.00;101716.31;5260545;28;20035;-66
2022/07/30 05:55:28;;;;;;;25.13;19.65;;;;;;;14.47;100.00;101715.09;5269337;28;20060;-66
2022/07/30 05:57:59;;;;;;;24.60;20.13;;;;;;;14.51;100.00;101719.25;5264946;28;20572;-66
2022/07/30 06:00:32;;;;;;;25.83;20.70;;;;;;;14.60;100.00;101722.22;5259946;28;20063;-66
2022/07/30 06:03:04;;;;;;;30.42;21.35;;;;;;;14.65;100.00;101720.88;5269856;28;20032;-66
2022/07/30 06:05:35;;;;;;;27.33;21.65;;;;;;;14.73;100.00;101727.47;5254954;28;20363;-66
2022/07/30 06:08:07;;;;;;;26.35;18.35;;;;;;;14.76;100.00;101730.75;5265962;28;20438;-66
2022/07/30 06:10:38;;;;;;;24.10;18.38;;;;;;;14.82;100.00;101732.09;5274403;28;20052;-66
2022/07/30 06:13:10;;;;;;;23.20;18.02;;;;;;;14.90;100.00;101735.03;5269870;28;20032;-66
2022/07/30 06:15:41;;;;;;;24.15;16.67;;;;;;;14.95;100.00;101738.19;5261487;28;20060;-66
2022/07/30 06:18:12;;;;;;;24.17;17.42;;;;;;;15.03;100.00;101730.38;5259418;28;20810;-66
2022/07/30 06:20:44;;;;;;;20.42;16.40;;;;;;;15.09;100.00;101735.25;5265096;28;20063;-66
2022/07/30 06:23:15;;;;;;;18.98;15.48;;;;;;;15.12;100.00;101736.00;5265420;28;20040;-66
2022/07/30 06:25:47;;;;;;;19.85;15.70;;;;;;;15.18;100.00;101736.31;5263344;28;20029;-66
2022/07/30 06:28:19;;;;;;;17.67;14.63;;;;;;;15.25;100.00;101739.38;5259982;28;20035;-66
2022/07/30 06:30:50;;;;;;;18.70;14.20;;;;;;;15.33;100.00;101742.28;5261700;28;20037;-66
2022/07/30 06:33:21;;;;;;;18.80;14.00;;;;;;;15.39;100.00;101749.84;5267411;28;20020;-66
2022/07/30 06:35:53;;;;;;;17.48;12.60;;;;;;;15.47;100.00;101750.09;5269159;28;20021;-66
2022/07/30 06:38:24;;;;;;;15.68;12.32;;;;;;;15.56;100.00;101744.91;5271442;28;20120;-67
2022/07/30 06:40:55;;;;;;;14.73;12.13;;;;;;;15.65;100.00;101752.22;5264694;28;20485;-66
2022/07/30 06:43:27;;;;;;;16.33;12.40;;;;;;;15.76;100.00;101752.22;5281005;28;20071;-66
2022/07/30 06:45:58;;;;;;;17.27;11.25;;;;;;;15.82;100.00;101743.59;5268997;28;20036;-66
2022/07/30 06:48:30;;;;;;;13.18;10.98;;;;;;;15.92;100.00;101756.28;5271581;28;20021;-66
2022/07/30 06:51:02;;;;;;;13.98;9.27;;;;;;;15.99;100.00;101747.56;5271844;28;20059;-66
2022/07/30 06:53:33;;;;;;;13.13;9.32;;;;;;;16.10;100.00;101738.56;5252710;28;20525;-66
2022/07/30 06:56:05;;;;;;;13.57;7.53;;;;;;;16.13;100.00;101745.50;5265368;28;20031;-66
2022/07/30 06:58:36;;;;;;;10.68;8.63;;;;;;;16.29;100.00;101742.38;5264995;28;20059;-66
2022/07/30 07:01:07;;;;;;;11.55;8.32;;;;;;;16.54;100.00;101738.38;5262831;28;20093;-66
2022/07/30 07:03:39;;;;;;;10.68;8.18;;;;;;;16.64;100.00;101753.63;5262747;28;20529;-66
2022/07/30 07:06:10;;;;;;;13.57;7.60;;;;;;;16.78;100.00;101751.53;5264921;28;20024;-66
2022/07/30 07:08:41;;;;;;;12.00;8.00;;;;;;;17.00;100.00;101751.34;5269870;28;20051;-66
2022/07/30 07:11:12;;;;;;;13.07;7.82;;;;;;;17.23;100.00;101753.84;5263464;28;20108;-66
2022/07/30 07:13:44;;;;;;;9.68;5.78;;;;;;;17.34;100.00;101759.09;5263194;28;20532;-66
2022/07/30 07:16:15;;;;;;;8.07;5.18;;;;;;;17.53;100.00;101765.53;5262583;28;20081;-66
2022/07/30 07:18:47;;;;;;;9.48;5.18;;;;;;;17.69;100.00;101763.13;5266712;28;20413;-66
2022/07/30 07:21:19;;;;;;;8.68;5.00;;;;;;;17.81;98.79;101763.81;5262474;28;20063;-66
2022/07/30 07:23:50;;;;;;;8.07;4.80;;;;;;;17.89;96.48;101758.63;5267427;28;20519;-66
2022/07/30 07:26:21;;;;;;;8.77;4.70;;;;;;;17.96;96.29;101754.31;5268047;28;20111;-66
2022/07/30 07:28:52;;;;;;;12.32;4.72;;;;;;;18.09;95.95;101756.75;5270629;28;20024;-66
2022/07/30 07:31:24;;;;;;;9.35;4.68;;;;;;;18.06;93.04;101758.88;5269713;28;20029;-66
2022/07/30 07:33:56;;;;;;;8.77;4.38;;;;;;;18.01;92.92;101767.41;5265777;28;20025;-66
2022/07/30 07:36:27;;;;;;;9.73;5.18;;;;;;;18.10;93.78;101769.25;5262873;28;20410;-66
2022/07/30 07:38:58;;;;;;;8.52;4.28;;;;;;;18.09;91.75;101772.94;5270935;28;20052;-66
2022/07/30 07:41:30;;;;;;;8.63;3.35;;;;;;;18.11;90.03;101768.25;5267128;28;20064;-66
2022/07/30 07:44:02;;;;;;;10.73;4.00;;;;;;;18.13;91.18;101763.56;5265410;28;20029;-66
2022/07/30 07:46:33;;;;;;;7.55;3.50;;;;;;;18.15;91.41;101772.34;5270184;28;20094;-67
2022/07/30 07:49:04;;;;;;;7.57;3.97;;;;;;;18.19;91.95;101765.66;5272309;28;20036;-66
2022/07/30 07:51:36;;;;;;;7.80;3.50;;;;;;;18.34;88.36;101762.53;5260224;28;20032;-66
2022/07/30 07:54:07;;;;;;;8.88;3.65;;;;;;;18.33;88.18;101763.50;5267266;28;20081;-66
2022/07/30 07:56:38;;;;;;;7.57;3.30;;;;;;;18.35;86.12;101764.22;5261034;28;20291;-66
2022/07/30 07:59:09;;;;;;;10.00;4.28;;;;;;;18.29;87.05;101759.41;5265002;28;20430;-66
2022/07/30 08:01:41;;;;;;;6.57;2.80;;;;;;;18.33;85.25;101758.09;5267992;28;20021;-66
2022/07/30 08:04:12;;;;;;;6.82;2.67;;;;;;;18.41;86.24;101761.78;5259847;28;20059;-66
2022/07/30 08:06:43;;;;;;;5.47;3.13;;;;;;;18.54;85.06;101758.78;5267312;28;20032;-67
2022/07/30 08:09:14;;;;;;;7.93;3.00;;;;;;;18.64;84.71;101769.56;5270397;28;20078;-66
2022/07/30 08:11:46;;;;;;;8.73;2.90;;;;;;;18.68;83.37;101768.25;5265383;28;20059;-66
2022/07/30 08:14:17;;;;;;;7.07;2.95;;;;;;;18.70;84.31;101762.72;5260434;28;20111;-66
2022/07/30 08:16:49;;;;;;;6.28;3.50;;;;;;;18.63;83.07;101765.13;5265753;28;20035;-66
2022/07/30 08:19:20;;;;;;;6.13;3.78;;;;;;;18.72;83.67;101760.72;5265875;28;20028;-66
2022/07/30 08:21:51;;;;;;;6.70;2.70;;;;;;;18.89;85.47;101753.66;5265211;28;20494;-67
2022/07/30 08:24:23;;;;;;;7.90;3.15;;;;;;;18.91;84.93;101754.41;5268324;28;20400;-66
2022/07/30 08:26:54;;;;;;;7.30;2.92;;;;;;;19.02;82.24;101761.44;5259202;28;20033;-66
2022/07/30 08:29:25;;;;;;;6.63;3.15;;;;;;;19.14;80.49;101765.66;5264515;28;20145;-66
2022/07/30 08:31:56;;;;;;;8.63;3.22;;;;;;;19.07;81.30;101762.69;5262477;28;20044;-66
2022/07/30 08:34:28;;;;;;;7.22;2.80;;;;;;;19.03;77.21;101768.56;5262804;28;20012;-65
2022/07/30 08:36:59;;;;;;;8.95;2.33;;;;;;;19.22;76.50;101757.63;5266476;28;20450;-66
2022/07/30 08:39:30;;;;;;;5.20;2.30;;;;;;;19.16;77.75;101758.25;5266755;28;20036;-66
2022/07/30 08:42:03;;;;;;;4.05;2.20;;;;;;;19.30;78.60;101760.41;5268794;28;20039;-66
2022/07/30 08:44:35;;;;;;;5.03;2.40;;;;;;;19.24;78.27;101755.63;5257444;28;20021;-66
2022/07/30 08:47:10;;;;;;;5.50;2.75;;;;;;;19.28;79.72;101764.28;5261636;28;20112;-66
2022/07/30 08:49:41;;;;;;;6.03;2.60;;;;;;;19.59;76.76;101748.53;5272523;28;20046;-65
2022/07/30 08:52:14;;;;;;;6.35;2.20;;;;;;;19.57;75.22;101761.38;5265140;28;20037;-67
2022/07/30 08:54:45;;;;;;;5.28;2.50;;;;;;;19.68;74.87;101763.00;5278331;28;20027;-66
2022/07/30 08:57:16;;;;;;;3.97;2.00;;;;;;;19.68;74.40;101763.84;5270569;28;20044;-66
2022/07/30 08:59:50;;;;;;;4.22;2.00;;;;;;;19.76;70.89;101772.09;5272230;28;20038;-66
2022/07/30 09:02:21;;;;;;;5.57;2.28;;;;;;;19.76;70.50;101753.13;5268454;28;20032;-66
2022/07/30 09:04:53;;;;;;;4.32;2.22;;;;;;;19.85;69.96;101759.47;5277254;28;20029;-66
2022/07/30 09:07:24;;;;;;;5.53;2.22;;;;;;;20.00;72.94;101757.06;5264608;28;20585;-66
2022/07/30 09:09:57;;;;;;;4.43;2.20;;;;;;;20.10;72.55;101756.97;5264191;28;20021;-66
2022/07/30 09:12:42;;;;;;;5.15;2.20;;;;;;;20.27;71.78;101752.50;5262792;28;20092;-66
2022/07/30 09:15:16;;;;;;;5.82;2.30;;;;;;;20.15;70.94;101768.16;5259161;28;20029;-66
2022/07/30 09:17:52;;;;;;;4.30;2.17;;;;;;;20.23;71.38;101770.09;5265737;28;20703;-66
2022/07/30 09:20:26;;;;;;;7.28;2.53;;;;;;;20.27;72.01;101760.63;5270353;28;20039;-66
2022/07/30 09:23:00;;;;;;;7.07;2.42;;;;;;;20.32;71.94;101766.44;5268522;28;20036;-66
2022/07/30 09:25:32;;;;;;;;;;;;;;;20.33;73.42;101770.84;5267939;28;20113;-66
2022/07/30 09:28:04;;;;;;;6.30;2.13;;;;;;;20.49;69.91;101765.53;5262711;28;19916;-66
2022/07/30 09:30:48;;;;;;;5.57;2.00;;;;;;;20.46;72.28;101774.00;5269765;28;20035;-66
2022/07/30 09:33:34;;;;;;;5.38;2.20;;;;;;;20.67;70.16;101789.03;5276568;28;20032;-66
2022/07/30 09:36:07;;;;;;;5.55;2.28;;;;;;;20.67;67.29;101789.91;5271868;28;20012;-66
2022/07/30 09:38:50;;;;;;;4.35;2.00;;;;;;;20.67;67.98;101792.63;5259402;28;20029;-66
2022/07/30 09:41:36;;;;;;;7.22;2.20;;;;;;;20.72;67.86;101775.88;5273211;28;20085;-66
2022/07/30 09:44:07;;;;;;;3.88;1.70;;;;;;;20.88;67.38;101773.25;5267506;28;20029;-66
2022/07/30 09:46:46;;;;;;;4.50;2.13;;;;;;;20.81;67.23;101769.47;5254255;28;20079;-66
2022/07/30 09:49:20;;;;;;;4.18;1.80;;;;;;;21.23;66.60;101763.19;5268124;28;20036;-66
2022/07/30 09:51:52;;;;;;;3.75;1.70;;;;;;;21.19;63.56;101766.38;5275915;28;20028;-66
2022/07/30 09:54:44;;;;;;;5.55;1.92;;;;;;;21.18;64.02;101760.09;5260473;28;20060;-66
2022/07/30 09:57:15;;;;;;;5.00;2.25;;;;;;;21.17;62.77;101762.97;5259491;28;20063;-66
2022/07/30 09:59:46;;;;;;;6.05;1.70;;;;;;;21.25;64.28;101760.31;5268723;28;20037;-66
2022/07/30 10:02:18;;;;;;;4.85;2.00;;;;;;;21.23;63.62;101760.47;5270056;28;20025;-66
2022/07/30 10:04:49;;;;;;;4.65;1.63;;;;;;;21.23;62.06;101760.47;5277036;28;20024;-67
2022/07/30 10:07:21;;;;;;;5.45;1.65;;;;;;;21.18;62.58;101751.97;5267486;28;20082;-66
2022/07/30 10:09:53;;;;;;;3.95;1.60;;;;;;;21.36;61.65;101751.84;5273509;28;20035;-66
2022/07/30 10:12:25;;;;;;;5.70;2.00;;;;;;;21.51;61.60;101754.78;5285421;28;20032;-67
2022/07/30 10:15:00;;;;;;;5.43;1.98;;;;;;;21.43;60.85;101760.19;5262734;28;20167;-67
2022/07/30 10:17:33;;;;;;;4.82;1.73;;;;;;;21.62;61.01;101749.03;5265883;28;20033;-66
2022/07/30 10:20:07;;;;;;;3.92;1.40;;;;;;;21.90;60.89;101752.28;5262582;28;20538;-67
2022/07/30 10:22:39;;;;;;;4.07;1.30;;;;;;;21.70;59.29;101749.03;5263401;28;20059;-67
2022/07/30 10:25:10;;;;;;;3.63;1.20;;;;;;;21.93;57.87;101751.09;5278132;28;20029;-67
2022/07/30 10:27:42;;;;;;;4.80;1.40;;;;;;;21.99;60.19;101755.84;5272870;28;20036;-67
2022/07/30 10:30:13;;;;;;;4.65;1.50;;;;;;;21.97;59.81;101752.44;5276341;28;20035;-66
2022/07/30 10:32:45;;;;;;;3.63;1.52;;;;;;;22.25;58.63;101752.97;5281786;28;20051;-66
2022/07/30 10:35:17;;;;;;;4.50;1.60;;;;;;;22.17;57.08;101762.94;5267920;28;20021;-66
2022/07/30 10:37:49;;;;;;;4.45;1.77;;;;;;;22.38;57.72;101751.56;5265001;28;20144;-67
2022/07/30 10:40:32;;;;;;;4.15;1.38;;;;;;;22.38;57.25;101743.41;5276087;28;20034;-66
2022/07/30 10:43:31;;;;;;;4.20;1.40;;;;;;;22.62;59.04;101756.13;5275760;28;20411;-66
2022/07/30 10:46:11;;;;;;;3.90;1.58;;;;;;;22.67;57.21;101748.28;5271500;28;20029;-67
2022/07/30 10:48:42;;;;;;;5.90;1.42;;;;;;;22.71;55.01;101752.34;5271483;28;20036;-67
2022/07/30 10:51:13;;;;;;;4.32;1.55;;;;;;;22.75;54.73;101763.72;5263376;28;20384;-66
2022/07/30 10:53:46;;;;;;;4.22;1.70;;;;;;;22.76;55.57;101757.25;5268208;28;20025;-67
2022/07/30 10:56:22;;;;;;;4.60;1.38;;;;;;;22.81;54.94;101760.31;5275027;28;20056;-67
2022/07/30 10:59:07;;;;;;;3.42;1.38;;;;;;;22.94;54.64;101754.31;5275866;28;20054;-67
2022/07/30 11:01:51;;;;;;;9.88;1.58;;;;;;;23.10;55.52;101748.78;5270921;28;20028;-67
2022/07/30 11:04:23;;;;;;;3.47;1.20;;;;;;;23.19;54.87;101746.91;5267275;28;20430;-67
2022/07/30 11:07:20;;;;;;;6.43;1.63;;;;;;;23.22;55.42;101744.66;5269091;28;20021;-67
2022/07/30 11:09:59;;;;;;;4.40;1.50;;;;;;;23.06;53.44;101747.47;5268065;28;20151;-68
2022/07/30 11:12:44;;;;;;;4.40;1.58;;;;;;;23.42;55.57;101750.50;5259845;28;20356;-68
2022/07/30 11:15:15;;;;;;;3.53;1.33;;;;;;;23.51;52.49;101742.25;5261996;28;20036;-67
2022/07/30 11:18:07;;;;;;;3.85;1.52;;;;;;;23.63;52.64;101754.44;5263024;28;20475;-66
2022/07/30 11:20:39;;;;;;;3.00;1.58;;;;;;;23.65;52.10;101744.22;5268798;28;20029;-67
2022/07/30 11:23:37;;;;;;;6.07;1.55;;;;;;;23.72;52.94;101738.84;5262953;28;20173;-67
2022/07/30 11:26:09;;;;;;;5.13;1.40;;;;;;;23.98;53.48;101736.63;5271640;28;20035;-67
2022/07/30 11:28:44;;;;;;;4.43;1.60;;;;;;;23.84;53.45;101734.72;5272494;28;20474;-67
2022/07/30 11:31:30;;;;;;;5.80;1.88;;;;;;;23.92;53.06;101741.97;5259772;28;20029;-68
2022/07/30 11:34:16;;;;;;;4.13;1.60;;;;;;;23.92;51.67;101731.91;5271291;28;20028;-68
2022/07/30 11:37:08;;;;;;;4.45;1.70;;;;;;;24.06;52.75;101733.81;5265246;28;20031;-68
2022/07/30 11:39:54;;;;;;;4.97;1.67;;;;;;;23.98;51.34;101735.78;5270526;28;20028;-69
2022/07/30 11:42:29;;;;;;;5.93;1.70;;;;;;;23.99;51.18;101737.47;5273407;28;20025;-68